sensor_id;sensor_type;location;lat;lon;timestamp;temperature;humidity
12885;DHT22;6510;51.362;7.370;2023-11-19T00:00:20;9.10;99.90
12885;DHT22;6510;51.362;7.370;2023-11-19T00:02:46;9.10;99.90
12885;DHT22;6510;51.362;7.370;2023-11-19T00:05:13;9.20;99.90
12885;DHT22;6510;51.362;7.370;2023-11-19T00:07:39;9.20;99.90
12885;DHT22;6510;51.362;7.370;2023-11-19T00:10:10;9.30;99.90
12885;DHT22;6510;51.362;7.370;2023-11-19T00:12:38;9.30;99.90
12885;DHT22;6510;51.362;7.370;2023-11-19T00:15:05;9.40;99.90
12885;DHT22;6510;51.362;7.370;2023-11-19T00:17:31;9.50;99.90
12885;DHT22;6510;51.362;7.370;2023-11-19T00:19:57;9.50;99.90
12885;DHT22;6510;51.362;7.370;2023-11-19T00:22:23;9.60;99.90
12885;DHT22;6510;51.362;7.370;2023-11-19T00:24:48;9.60;99.90
12885;DHT22;6510;51.362;7.370;2023-11-19T00:27:14;9.60;99.90
12885;DHT22;6510;51.362;7.370;2023-11-19T00:29:40;9.60;99.90
12885;DHT22;6510;51.362;7.370;2023-11-19T00:32:06;9.60;99.90
12885;DHT22;6510;51.362;7.370;2023-11-19T00:34:32;9.60;99.90
12885;DHT22;6510;51.362;7.370;2023-11-19T00:36:58;9.70;99.90
12885;DHT22;6510;51.362;7.370;2023-11-19T00:39:24;9.60;99.90
12885;DHT22;6510;51.362;7.370;2023-11-19T00:41:49;9.60;99.90
12885;DHT22;6510;51.362;7.370;2023-11-19T00:44:15;9.60;99.90
12885;DHT22;6510;51.362;7.370;2023-11-19T00:46:41;9.70;99.90
12885;DHT22;6510;51.362;7.370;2023-11-19T00:49:06;9.70;99.90
12885;DHT22;6510;51.362;7.370;2023-11-19T00:51:32;9.80;99.90
12885;DHT22;6510;51.362;7.370;2023-11-19T00:53:58;9.90;99.90
12885;DHT22;6510;51.362;7.370;2023-11-19T00:56:24;9.90;99.90
12885;DHT22;6510;51.362;7.370;2023-11-19T00:58:50;10.00;99.90
12885;DHT22;6510;51.362;7.370;2023-11-19T01:01:15;10.10;99.90
12885;DHT22;6510;51.362;7.370;2023-11-19T01:03:41;10.20;99.90
12885;DHT22;6510;51.362;7.370;2023-11-19T01:06:07;10.30;99.90
12885;DHT22;6510;51.362;7.370;2023-11-19T01:08:33;10.30;99.90
12885;DHT22;6510;51.362;7.370;2023-11-19T01:11:01;10.40;99.90
12885;DHT22;6510;51.362;7.370;2023-11-19T01:13:27;10.50;99.90
12885;DHT22;6510;51.362;7.370;2023-11-19T01:15:53;10.50;99.90
12885;DHT22;6510;51.362;7.370;2023-11-19T01:18:18;10.60;99.90
12885;DHT22;6510;51.362;7.370;2023-11-19T01:20:44;10.50;99.90
12885;DHT22;6510;51.362;7.370;2023-11-19T01:23:10;10.50;99.90
12885;DHT22;6510;51.362;7.370;2023-11-19T01:25:35;10.60;99.90
12885;DHT22;6510;51.362;7.370;2023-11-19T01:28:01;10.60;99.90
12885;DHT22;6510;51.362;7.370;2023-11-19T01:30:27;10.60;99.90
12885;DHT22;6510;51.362;7.370;2023-11-19T01:32:53;10.60;99.90
12885;DHT22;6510;51.362;7.370;2023-11-19T01:35:19;10.60;99.90
12885;DHT22;6510;51.362;7.370;2023-11-19T01:37:44;10.70;99.90
12885;DHT22;6510;51.362;7.370;2023-11-19T01:40:10;10.70;99.90
12885;DHT22;6510;51.362;7.370;2023-11-19T01:42:40;10.60;99.90
12885;DHT22;6510;51.362;7.370;2023-11-19T01:45:07;10.70;99.90
12885;DHT22;6510;51.362;7.370;2023-11-19T01:47:35;10.60;99.90
12885;DHT22;6510;51.362;7.370;2023-11-19T01:50:03;10.60;99.90
12885;DHT22;6510;51.362;7.370;2023-11-19T01:52:34;10.60;99.90
12885;DHT22;6510;51.362;7.370;2023-11-19T01:55:04;10.60;99.90
12885;DHT22;6510;51.362;7.370;2023-11-19T01:57:30;10.60;99.90
12885;DHT22;6510;51.362;7.370;2023-11-19T01:59:55;10.70;99.90
12885;DHT22;6510;51.362;7.370;2023-11-19T02:02:21;10.70;99.90
12885;DHT22;6510;51.362;7.370;2023-11-19T02:04:51;10.70;99.90
12885;DHT22;6510;51.362;7.370;2023-11-19T02:07:17;10.80;99.90
12885;DHT22;6510;51.362;7.370;2023-11-19T02:09:44;10.80;99.90
12885;DHT22;6510;51.362;7.370;2023-11-19T02:12:10;10.90;99.90
12885;DHT22;6510;51.362;7.370;2023-11-19T02:14:37;10.90;99.90
12885;DHT22;6510;51.362;7.370;2023-11-19T02:17:04;10.90;99.90
12885;DHT22;6510;51.362;7.370;2023-11-19T02:19:29;11.00;99.90
12885;DHT22;6510;51.362;7.370;2023-11-19T02:21:55;11.10;99.90
12885;DHT22;6510;51.362;7.370;2023-11-19T02:24:22;11.10;99.90
12885;DHT22;6510;51.362;7.370;2023-11-19T02:27:05;11.10;99.90
12885;DHT22;6510;51.362;7.370;2023-11-19T02:29:35;11.20;99.90
12885;DHT22;6510;51.362;7.370;2023-11-19T02:32:00;11.30;99.90
12885;DHT22;6510;51.362;7.370;2023-11-19T02:34:27;11.30;99.90
12885;DHT22;6510;51.362;7.370;2023-11-19T02:36:53;11.30;99.90
12885;DHT22;6510;51.362;7.370;2023-11-19T02:39:19;11.30;99.90
12885;DHT22;6510;51.362;7.370;2023-11-19T02:41:47;11.30;99.90
12885;DHT22;6510;51.362;7.370;2023-11-19T02:44:16;11.30;99.90
12885;DHT22;6510;51.362;7.370;2023-11-19T02:46:42;11.30;99.90
12885;DHT22;6510;51.362;7.370;2023-11-19T02:49:07;11.30;99.90
12885;DHT22;6510;51.362;7.370;2023-11-19T02:51:33;11.30;99.90
12885;DHT22;6510;51.362;7.370;2023-11-19T02:54:00;11.40;99.90
12885;DHT22;6510;51.362;7.370;2023-11-19T02:56:25;11.40;99.90
12885;DHT22;6510;51.362;7.370;2023-11-19T02:58:52;11.40;99.90
12885;DHT22;6510;51.362;7.370;2023-11-19T03:01:26;11.40;99.90
12885;DHT22;6510;51.362;7.370;2023-11-19T03:03:56;11.40;99.90
12885;DHT22;6510;51.362;7.370;2023-11-19T03:06:23;11.40;99.90
12885;DHT22;6510;51.362;7.370;2023-11-19T03:08:48;11.50;99.90
12885;DHT22;6510;51.362;7.370;2023-11-19T03:11:14;11.50;99.90
12885;DHT22;6510;51.362;7.370;2023-11-19T03:13:40;11.50;99.90
12885;DHT22;6510;51.362;7.370;2023-11-19T03:16:06;11.50;99.90
12885;DHT22;6510;51.362;7.370;2023-11-19T03:18:32;11.50;99.90
12885;DHT22;6510;51.362;7.370;2023-11-19T03:20:58;11.50;99.90
12885;DHT22;6510;51.362;7.370;2023-11-19T03:23:24;11.50;99.90
12885;DHT22;6510;51.362;7.370;2023-11-19T03:25:50;11.50;99.90
12885;DHT22;6510;51.362;7.370;2023-11-19T03:28:16;11.60;99.90
12885;DHT22;6510;51.362;7.370;2023-11-19T03:30:41;11.50;99.90
12885;DHT22;6510;51.362;7.370;2023-11-19T03:33:07;11.50;99.90
12885;DHT22;6510;51.362;7.370;2023-11-19T03:35:32;11.60;99.90
12885;DHT22;6510;51.362;7.370;2023-11-19T03:37:58;11.50;99.90
12885;DHT22;6510;51.362;7.370;2023-11-19T03:40:24;11.60;99.90
12885;DHT22;6510;51.362;7.370;2023-11-19T03:42:50;11.60;99.90
12885;DHT22;6510;51.362;7.370;2023-11-19T03:45:16;11.60;99.90
12885;DHT22;6510;51.362;7.370;2023-11-19T03:47:42;11.60;99.90
12885;DHT22;6510;51.362;7.370;2023-11-19T03:50:07;11.60;99.90
12885;DHT22;6510;51.362;7.370;2023-11-19T03:52:34;11.50;99.90
12885;DHT22;6510;51.362;7.370;2023-11-19T03:55:00;11.50;99.90
12885;DHT22;6510;51.362;7.370;2023-11-19T03:57:26;11.50;99.90
12885;DHT22;6510;51.362;7.370;2023-11-19T03:59:52;11.50;99.90
12885;DHT22;6510;51.362;7.370;2023-11-19T04:02:18;11.40;99.90
12885;DHT22;6510;51.362;7.370;2023-11-19T04:04:43;11.50;99.90
12885;DHT22;6510;51.362;7.370;2023-11-19T04:07:09;11.50;99.90
12885;DHT22;6510;51.362;7.370;2023-11-19T04:09:35;11.40;99.90
12885;DHT22;6510;51.362;7.370;2023-11-19T04:12:03;11.50;99.90
12885;DHT22;6510;51.362;7.370;2023-11-19T04:14:29;11.50;99.90
12885;DHT22;6510;51.362;7.370;2023-11-19T04:16:55;11.40;99.90
12885;DHT22;6510;51.362;7.370;2023-11-19T04:19:20;11.40;99.90
12885;DHT22;6510;51.362;7.370;2023-11-19T04:21:46;11.30;99.90
12885;DHT22;6510;51.362;7.370;2023-11-19T04:24:12;11.30;99.90
12885;DHT22;6510;51.362;7.370;2023-11-19T04:26:44;11.30;99.90
12885;DHT22;6510;51.362;7.370;2023-11-19T04:29:15;11.30;99.90
12885;DHT22;6510;51.362;7.370;2023-11-19T04:31:42;11.30;99.90
12885;DHT22;6510;51.362;7.370;2023-11-19T04:34:07;11.20;99.90
12885;DHT22;6510;51.362;7.370;2023-11-19T04:36:33;11.20;99.90
12885;DHT22;6510;51.362;7.370;2023-11-19T04:39:00;11.10;99.90
12885;DHT22;6510;51.362;7.370;2023-11-19T04:41:26;11.10;99.90
12885;DHT22;6510;51.362;7.370;2023-11-19T04:43:53;11.10;99.90
12885;DHT22;6510;51.362;7.370;2023-11-19T04:46:19;11.10;99.90
12885;DHT22;6510;51.362;7.370;2023-11-19T04:48:45;11.00;99.90
12885;DHT22;6510;51.362;7.370;2023-11-19T04:51:11;10.90;99.90
12885;DHT22;6510;51.362;7.370;2023-11-19T04:53:37;10.90;99.90
12885;DHT22;6510;51.362;7.370;2023-11-19T04:56:09;10.90;99.90
12885;DHT22;6510;51.362;7.370;2023-11-19T04:58:35;10.90;99.90
12885;DHT22;6510;51.362;7.370;2023-11-19T05:01:04;10.90;99.90
12885;DHT22;6510;51.362;7.370;2023-11-19T05:03:32;11.00;99.90
12885;DHT22;6510;51.362;7.370;2023-11-19T05:05:58;11.10;99.90
12885;DHT22;6510;51.362;7.370;2023-11-19T05:08:24;11.10;99.90
12885;DHT22;6510;51.362;7.370;2023-11-19T05:10:53;11.00;99.90
12885;DHT22;6510;51.362;7.370;2023-11-19T05:13:18;11.00;99.90
12885;DHT22;6510;51.362;7.370;2023-11-19T05:15:44;11.00;99.90
12885;DHT22;6510;51.362;7.370;2023-11-19T05:18:10;11.10;99.90
12885;DHT22;6510;51.362;7.370;2023-11-19T05:20:35;11.10;99.90
12885;DHT22;6510;51.362;7.370;2023-11-19T05:23:01;11.10;99.90
12885;DHT22;6510;51.362;7.370;2023-11-19T05:25:27;11.10;99.90
12885;DHT22;6510;51.362;7.370;2023-11-19T05:27:53;11.10;99.90
12885;DHT22;6510;51.362;7.370;2023-11-19T05:30:19;11.10;99.90
12885;DHT22;6510;51.362;7.370;2023-11-19T05:32:44;11.10;99.90
12885;DHT22;6510;51.362;7.370;2023-11-19T05:35:11;11.10;99.90
12885;DHT22;6510;51.362;7.370;2023-11-19T05:37:37;11.20;99.90
12885;DHT22;6510;51.362;7.370;2023-11-19T05:40:03;11.10;99.90
12885;DHT22;6510;51.362;7.370;2023-11-19T05:42:31;11.00;99.90
12885;DHT22;6510;51.362;7.370;2023-11-19T05:44:57;11.00;99.90
12885;DHT22;6510;51.362;7.370;2023-11-19T05:47:23;11.00;99.90
12885;DHT22;6510;51.362;7.370;2023-11-19T05:49:48;11.00;99.90
12885;DHT22;6510;51.362;7.370;2023-11-19T05:52:14;11.00;99.90
12885;DHT22;6510;51.362;7.370;2023-11-19T05:54:40;11.00;99.90
12885;DHT22;6510;51.362;7.370;2023-11-19T05:57:06;11.00;99.90
12885;DHT22;6510;51.362;7.370;2023-11-19T05:59:34;11.00;99.90
12885;DHT22;6510;51.362;7.370;2023-11-19T06:02:01;11.00;99.90
12885;DHT22;6510;51.362;7.370;2023-11-19T06:04:27;11.10;99.90
12885;DHT22;6510;51.362;7.370;2023-11-19T06:06:53;11.10;99.90
12885;DHT22;6510;51.362;7.370;2023-11-19T06:09:21;11.10;99.90
12885;DHT22;6510;51.362;7.370;2023-11-19T06:11:49;11.10;99.90
12885;DHT22;6510;51.362;7.370;2023-11-19T06:14:14;11.10;99.90
12885;DHT22;6510;51.362;7.370;2023-11-19T06:16:43;11.00;99.90
12885;DHT22;6510;51.362;7.370;2023-11-19T06:19:09;11.00;99.90
12885;DHT22;6510;51.362;7.370;2023-11-19T06:21:36;10.90;99.90
12885;DHT22;6510;51.362;7.370;2023-11-19T06:24:02;11.00;99.90
12885;DHT22;6510;51.362;7.370;2023-11-19T06:26:28;11.00;99.90
12885;DHT22;6510;51.362;7.370;2023-11-19T06:28:54;11.00;99.90
12885;DHT22;6510;51.362;7.370;2023-11-19T06:31:19;11.00;99.90
12885;DHT22;6510;51.362;7.370;2023-11-19T06:33:46;10.90;99.90
12885;DHT22;6510;51.362;7.370;2023-11-19T06:36:14;10.90;99.90
12885;DHT22;6510;51.362;7.370;2023-11-19T06:38:42;10.80;99.90
12885;DHT22;6510;51.362;7.370;2023-11-19T06:41:08;10.80;99.90
12885;DHT22;6510;51.362;7.370;2023-11-19T06:43:34;10.90;99.90
12885;DHT22;6510;51.362;7.370;2023-11-19T06:46:00;10.90;99.90
12885;DHT22;6510;51.362;7.370;2023-11-19T06:48:26;10.90;99.90
12885;DHT22;6510;51.362;7.370;2023-11-19T06:50:51;10.90;99.90
12885;DHT22;6510;51.362;7.370;2023-11-19T06:53:17;10.90;99.90
12885;DHT22;6510;51.362;7.370;2023-11-19T06:55:43;10.90;99.90
12885;DHT22;6510;51.362;7.370;2023-11-19T06:58:08;10.80;99.90
12885;DHT22;6510;51.362;7.370;2023-11-19T07:00:34;10.80;99.90
12885;DHT22;6510;51.362;7.370;2023-11-19T07:03:01;10.80;99.90
12885;DHT22;6510;51.362;7.370;2023-11-19T07:05:27;10.70;99.90
12885;DHT22;6510;51.362;7.370;2023-11-19T07:07:53;10.70;99.90
12885;DHT22;6510;51.362;7.370;2023-11-19T07:10:20;10.70;99.90
12885;DHT22;6510;51.362;7.370;2023-11-19T07:12:45;10.70;99.90
12885;DHT22;6510;51.362;7.370;2023-11-19T07:15:11;10.70;99.90
12885;DHT22;6510;51.362;7.370;2023-11-19T07:17:38;10.70;99.90
12885;DHT22;6510;51.362;7.370;2023-11-19T07:20:05;10.70;99.90
12885;DHT22;6510;51.362;7.370;2023-11-19T07:22:31;10.60;99.90
12885;DHT22;6510;51.362;7.370;2023-11-19T07:24:57;10.60;99.90
12885;DHT22;6510;51.362;7.370;2023-11-19T07:27:22;10.60;99.90
12885;DHT22;6510;51.362;7.370;2023-11-19T07:29:49;10.50;99.90
12885;DHT22;6510;51.362;7.370;2023-11-19T07:32:15;10.50;99.90
12885;DHT22;6510;51.362;7.370;2023-11-19T07:34:41;10.60;99.90
12885;DHT22;6510;51.362;7.370;2023-11-19T07:37:06;10.50;99.90
12885;DHT22;6510;51.362;7.370;2023-11-19T07:39:32;10.50;99.90
12885;DHT22;6510;51.362;7.370;2023-11-19T07:41:58;10.50;99.90
12885;DHT22;6510;51.362;7.370;2023-11-19T07:44:23;10.50;99.90
12885;DHT22;6510;51.362;7.370;2023-11-19T07:46:50;10.50;99.90
12885;DHT22;6510;51.362;7.370;2023-11-19T07:49:15;10.50;99.90
12885;DHT22;6510;51.362;7.370;2023-11-19T07:51:41;10.50;99.90
12885;DHT22;6510;51.362;7.370;2023-11-19T07:54:07;10.40;99.90
12885;DHT22;6510;51.362;7.370;2023-11-19T07:56:33;10.50;99.90
12885;DHT22;6510;51.362;7.370;2023-11-19T07:59:02;10.50;99.90
12885;DHT22;6510;51.362;7.370;2023-11-19T08:01:28;10.60;99.90
12885;DHT22;6510;51.362;7.370;2023-11-19T08:03:54;10.60;99.90
12885;DHT22;6510;51.362;7.370;2023-11-19T08:06:20;10.70;99.90
12885;DHT22;6510;51.362;7.370;2023-11-19T08:08:45;10.80;99.90
12885;DHT22;6510;51.362;7.370;2023-11-19T08:11:13;10.90;99.90
12885;DHT22;6510;51.362;7.370;2023-11-19T08:13:39;11.10;99.90
12885;DHT22;6510;51.362;7.370;2023-11-19T08:16:05;11.20;99.90
12885;DHT22;6510;51.362;7.370;2023-11-19T08:18:31;11.30;99.90
12885;DHT22;6510;51.362;7.370;2023-11-19T08:20:56;11.30;99.90
12885;DHT22;6510;51.362;7.370;2023-11-19T08:23:23;11.50;99.90
12885;DHT22;6510;51.362;7.370;2023-11-19T08:25:51;11.80;99.90
12885;DHT22;6510;51.362;7.370;2023-11-19T08:28:16;11.90;99.90
12885;DHT22;6510;51.362;7.370;2023-11-19T08:30:42;12.10;99.90
12885;DHT22;6510;51.362;7.370;2023-11-19T08:33:09;12.20;99.90
12885;DHT22;6510;51.362;7.370;2023-11-19T08:35:35;12.10;99.90
12885;DHT22;6510;51.362;7.370;2023-11-19T08:38:00;11.70;99.90
12885;DHT22;6510;51.362;7.370;2023-11-19T08:40:27;11.40;99.90
12885;DHT22;6510;51.362;7.370;2023-11-19T08:42:53;11.30;99.90
12885;DHT22;6510;51.362;7.370;2023-11-19T08:45:19;11.30;99.90
12885;DHT22;6510;51.362;7.370;2023-11-19T08:47:44;11.20;99.90
12885;DHT22;6510;51.362;7.370;2023-11-19T08:50:11;11.20;99.90
12885;DHT22;6510;51.362;7.370;2023-11-19T08:52:37;11.20;99.90
12885;DHT22;6510;51.362;7.370;2023-11-19T08:55:03;11.30;99.90
12885;DHT22;6510;51.362;7.370;2023-11-19T08:57:31;11.40;99.90
12885;DHT22;6510;51.362;7.370;2023-11-19T08:59:56;11.30;99.90
12885;DHT22;6510;51.362;7.370;2023-11-19T09:02:22;11.20;99.90
12885;DHT22;6510;51.362;7.370;2023-11-19T09:04:48;11.30;99.90
12885;DHT22;6510;51.362;7.370;2023-11-19T09:07:13;11.40;99.90
12885;DHT22;6510;51.362;7.370;2023-11-19T09:09:39;11.80;99.90
12885;DHT22;6510;51.362;7.370;2023-11-19T09:12:04;12.10;99.90
12885;DHT22;6510;51.362;7.370;2023-11-19T09:14:30;11.80;99.90
12885;DHT22;6510;51.362;7.370;2023-11-19T09:16:56;11.70;99.90
12885;DHT22;6510;51.362;7.370;2023-11-19T09:19:23;11.60;99.90
12885;DHT22;6510;51.362;7.370;2023-11-19T09:21:49;11.60;99.90
12885;DHT22;6510;51.362;7.370;2023-11-19T09:24:15;11.90;99.90
12885;DHT22;6510;51.362;7.370;2023-11-19T09:26:41;12.10;99.90
12885;DHT22;6510;51.362;7.370;2023-11-19T09:29:10;12.00;99.90
12885;DHT22;6510;51.362;7.370;2023-11-19T09:31:38;11.80;99.90
12885;DHT22;6510;51.362;7.370;2023-11-19T09:34:03;11.70;99.90
12885;DHT22;6510;51.362;7.370;2023-11-19T09:36:29;11.90;99.90
12885;DHT22;6510;51.362;7.370;2023-11-19T09:38:55;12.10;99.90
12885;DHT22;6510;51.362;7.370;2023-11-19T09:41:21;11.70;99.90
12885;DHT22;6510;51.362;7.370;2023-11-19T09:43:47;11.80;99.90
12885;DHT22;6510;51.362;7.370;2023-11-19T09:46:13;12.00;99.90
12885;DHT22;6510;51.362;7.370;2023-11-19T09:48:41;12.50;99.90
12885;DHT22;6510;51.362;7.370;2023-11-19T09:51:08;12.20;99.90
12885;DHT22;6510;51.362;7.370;2023-11-19T09:53:35;11.80;99.90
12885;DHT22;6510;51.362;7.370;2023-11-19T09:56:03;12.00;99.90
12885;DHT22;6510;51.362;7.370;2023-11-19T09:58:32;12.20;99.90
12885;DHT22;6510;51.362;7.370;2023-11-19T10:00:59;12.10;99.90
12885;DHT22;6510;51.362;7.370;2023-11-19T10:03:27;11.80;99.90
12885;DHT22;6510;51.362;7.370;2023-11-19T10:05:55;11.80;99.90
12885;DHT22;6510;51.362;7.370;2023-11-19T10:08:22;11.70;99.90
12885;DHT22;6510;51.362;7.370;2023-11-19T10:10:48;11.80;99.90
12885;DHT22;6510;51.362;7.370;2023-11-19T10:13:14;11.80;99.90
12885;DHT22;6510;51.362;7.370;2023-11-19T10:15:40;12.60;99.90
12885;DHT22;6510;51.362;7.370;2023-11-19T10:18:06;14.60;99.90
12885;DHT22;6510;51.362;7.370;2023-11-19T10:20:36;15.30;99.90
12885;DHT22;6510;51.362;7.370;2023-11-19T10:23:03;13.60;99.90
12885;DHT22;6510;51.362;7.370;2023-11-19T10:25:29;12.80;99.90
12885;DHT22;6510;51.362;7.370;2023-11-19T10:27:56;12.30;99.90
12885;DHT22;6510;51.362;7.370;2023-11-19T10:30:26;11.90;99.90
12885;DHT22;6510;51.362;7.370;2023-11-19T10:33:13;11.70;99.90
12885;DHT22;6510;51.362;7.370;2023-11-19T10:35:53;11.60;99.90
12885;DHT22;6510;51.362;7.370;2023-11-19T10:38:19;12.20;99.90
12885;DHT22;6510;51.362;7.370;2023-11-19T10:40:45;12.20;99.90
12885;DHT22;6510;51.362;7.370;2023-11-19T10:43:11;12.00;99.90
12885;DHT22;6510;51.362;7.370;2023-11-19T10:45:38;12.00;99.90
12885;DHT22;6510;51.362;7.370;2023-11-19T10:48:05;12.00;99.90
12885;DHT22;6510;51.362;7.370;2023-11-19T10:50:34;12.10;99.90
12885;DHT22;6510;51.362;7.370;2023-11-19T10:53:02;11.90;99.90
12885;DHT22;6510;51.362;7.370;2023-11-19T10:55:30;11.90;99.90
12885;DHT22;6510;51.362;7.370;2023-11-19T10:58:01;12.60;99.90
12885;DHT22;6510;51.362;7.370;2023-11-19T11:00:29;12.70;99.90
12885;DHT22;6510;51.362;7.370;2023-11-19T11:03:02;12.50;99.90
12885;DHT22;6510;51.362;7.370;2023-11-19T11:05:34;12.20;99.90
12885;DHT22;6510;51.362;7.370;2023-11-19T11:08:00;12.50;99.90
12885;DHT22;6510;51.362;7.370;2023-11-19T11:10:28;13.10;99.90
12885;DHT22;6510;51.362;7.370;2023-11-19T11:12:59;12.80;99.90
12885;DHT22;6510;51.362;7.370;2023-11-19T11:15:27;12.40;99.90
12885;DHT22;6510;51.362;7.370;2023-11-19T11:18:00;12.20;99.90
12885;DHT22;6510;51.362;7.370;2023-11-19T11:20:33;12.70;99.90
12885;DHT22;6510;51.362;7.370;2023-11-19T11:23:32;13.40;99.90
12885;DHT22;6510;51.362;7.370;2023-11-19T11:26:33;13.00;99.90
12885;DHT22;6510;51.362;7.370;2023-11-19T11:29:05;12.60;99.90
12885;DHT22;6510;51.362;7.370;2023-11-19T11:34:49;13.30;99.90
12885;DHT22;6510;51.362;7.370;2023-11-19T11:37:35;13.10;99.90
12885;DHT22;6510;51.362;7.370;2023-11-19T11:40:02;13.30;99.90
12885;DHT22;6510;51.362;7.370;2023-11-19T11:42:38;13.20;99.90
12885;DHT22;6510;51.362;7.370;2023-11-19T11:45:06;13.50;99.90
12885;DHT22;6510;51.362;7.370;2023-11-19T11:50:17;12.90;99.90
12885;DHT22;6510;51.362;7.370;2023-11-19T11:55:52;12.40;99.90
12885;DHT22;6510;51.362;7.370;2023-11-19T11:58:21;12.20;99.90
12885;DHT22;6510;51.362;7.370;2023-11-19T12:00:48;12.10;99.90
12885;DHT22;6510;51.362;7.370;2023-11-19T12:03:14;11.90;99.90
12885;DHT22;6510;51.362;7.370;2023-11-19T12:05:44;11.80;99.90
12885;DHT22;6510;51.362;7.370;2023-11-19T12:08:12;11.60;99.90
12885;DHT22;6510;51.362;7.370;2023-11-19T12:10:45;11.70;99.90
12885;DHT22;6510;51.362;7.370;2023-11-19T12:13:13;11.80;99.90
12885;DHT22;6510;51.362;7.370;2023-11-19T12:18:28;12.00;99.90
12885;DHT22;6510;51.362;7.370;2023-11-19T12:20:54;12.00;99.90
12885;DHT22;6510;51.362;7.370;2023-11-19T12:23:20;12.00;99.90
12885;DHT22;6510;51.362;7.370;2023-11-19T12:25:46;11.90;99.90
12885;DHT22;6510;51.362;7.370;2023-11-19T12:28:13;12.00;99.90
12885;DHT22;6510;51.362;7.370;2023-11-19T12:30:39;12.10;99.90
12885;DHT22;6510;51.362;7.370;2023-11-19T12:33:11;14.10;99.90
12885;DHT22;6510;51.362;7.370;2023-11-19T12:35:44;15.60;99.90
12885;DHT22;6510;51.362;7.370;2023-11-19T12:38:24;14.30;99.90
12885;DHT22;6510;51.362;7.370;2023-11-19T12:41:16;13.10;99.90
12885;DHT22;6510;51.362;7.370;2023-11-19T12:43:45;12.50;99.90
12885;DHT22;6510;51.362;7.370;2023-11-19T12:46:19;12.40;99.90
12885;DHT22;6510;51.362;7.370;2023-11-19T12:48:46;12.40;99.90
12885;DHT22;6510;51.362;7.370;2023-11-19T12:51:12;12.60;99.90
12885;DHT22;6510;51.362;7.370;2023-11-19T12:53:52;13.10;99.90
12885;DHT22;6510;51.362;7.370;2023-11-19T12:56:20;13.30;99.90
12885;DHT22;6510;51.362;7.370;2023-11-19T12:58:47;12.90;99.90
12885;DHT22;6510;51.362;7.370;2023-11-19T13:01:19;12.70;99.90
12885;DHT22;6510;51.362;7.370;2023-11-19T13:03:46;12.40;99.90
12885;DHT22;6510;51.362;7.370;2023-11-19T13:06:13;12.30;99.90
12885;DHT22;6510;51.362;7.370;2023-11-19T13:08:42;12.00;99.90
12885;DHT22;6510;51.362;7.370;2023-11-19T13:11:10;11.80;99.90
12885;DHT22;6510;51.362;7.370;2023-11-19T13:13:56;11.70;99.90
12885;DHT22;6510;51.362;7.370;2023-11-19T13:16:22;11.70;99.90
12885;DHT22;6510;51.362;7.370;2023-11-19T13:18:48;11.50;99.90
12885;DHT22;6510;51.362;7.370;2023-11-19T13:21:14;11.30;99.90
12885;DHT22;6510;51.362;7.370;2023-11-19T13:23:39;11.20;99.90
12885;DHT22;6510;51.362;7.370;2023-11-19T13:26:05;11.20;99.90
12885;DHT22;6510;51.362;7.370;2023-11-19T13:28:31;11.20;99.90
12885;DHT22;6510;51.362;7.370;2023-11-19T13:30:56;11.10;99.90
12885;DHT22;6510;51.362;7.370;2023-11-19T13:33:23;10.90;99.90
12885;DHT22;6510;51.362;7.370;2023-11-19T13:35:49;10.60;99.90
12885;DHT22;6510;51.362;7.370;2023-11-19T13:38:14;10.40;99.90
12885;DHT22;6510;51.362;7.370;2023-11-19T13:40:40;10.20;99.90
12885;DHT22;6510;51.362;7.370;2023-11-19T13:43:05;10.10;99.90
12885;DHT22;6510;51.362;7.370;2023-11-19T13:45:31;10.00;99.90
12885;DHT22;6510;51.362;7.370;2023-11-19T13:47:57;10.00;99.90
12885;DHT22;6510;51.362;7.370;2023-11-19T13:50:22;10.10;99.90
12885;DHT22;6510;51.362;7.370;2023-11-19T13:52:48;10.20;99.90
12885;DHT22;6510;51.362;7.370;2023-11-19T13:55:14;10.30;99.90
12885;DHT22;6510;51.362;7.370;2023-11-19T13:57:41;10.50;99.90
12885;DHT22;6510;51.362;7.370;2023-11-19T14:00:11;10.70;99.90
12885;DHT22;6510;51.362;7.370;2023-11-19T14:02:45;10.90;99.90
12885;DHT22;6510;51.362;7.370;2023-11-19T14:05:12;10.80;99.90
12885;DHT22;6510;51.362;7.370;2023-11-19T14:07:38;10.80;99.90
12885;DHT22;6510;51.362;7.370;2023-11-19T14:10:04;10.60;99.90
12885;DHT22;6510;51.362;7.370;2023-11-19T14:12:34;10.60;99.90
12885;DHT22;6510;51.362;7.370;2023-11-19T14:15:02;10.60;99.90
12885;DHT22;6510;51.362;7.370;2023-11-19T14:17:28;10.50;99.90
12885;DHT22;6510;51.362;7.370;2023-11-19T14:19:53;10.40;99.90
12885;DHT22;6510;51.362;7.370;2023-11-19T14:22:19;10.30;99.90
12885;DHT22;6510;51.362;7.370;2023-11-19T14:24:45;10.30;99.90
12885;DHT22;6510;51.362;7.370;2023-11-19T14:27:10;10.30;99.90
12885;DHT22;6510;51.362;7.370;2023-11-19T14:29:36;10.30;99.90
12885;DHT22;6510;51.362;7.370;2023-11-19T14:32:02;10.30;99.90
12885;DHT22;6510;51.362;7.370;2023-11-19T14:34:30;10.40;99.90
12885;DHT22;6510;51.362;7.370;2023-11-19T14:36:56;10.40;99.90
12885;DHT22;6510;51.362;7.370;2023-11-19T14:39:21;10.40;99.90
12885;DHT22;6510;51.362;7.370;2023-11-19T14:41:47;10.50;99.90
12885;DHT22;6510;51.362;7.370;2023-11-19T14:44:12;10.50;99.90
12885;DHT22;6510;51.362;7.370;2023-11-19T14:46:38;10.40;99.90
12885;DHT22;6510;51.362;7.370;2023-11-19T14:49:04;10.30;99.90
12885;DHT22;6510;51.362;7.370;2023-11-19T14:51:30;10.20;99.90
12885;DHT22;6510;51.362;7.370;2023-11-19T14:53:56;10.20;99.90
12885;DHT22;6510;51.362;7.370;2023-11-19T14:56:21;10.20;99.90
12885;DHT22;6510;51.362;7.370;2023-11-19T14:58:47;10.10;99.90
12885;DHT22;6510;51.362;7.370;2023-11-19T15:01:16;10.10;99.90
12885;DHT22;6510;51.362;7.370;2023-11-19T15:03:41;10.10;99.90
12885;DHT22;6510;51.362;7.370;2023-11-19T15:06:07;10.10;99.90
12885;DHT22;6510;51.362;7.370;2023-11-19T15:08:33;10.10;99.90
12885;DHT22;6510;51.362;7.370;2023-11-19T15:10:59;10.10;99.90
12885;DHT22;6510;51.362;7.370;2023-11-19T15:13:27;10.10;99.90
12885;DHT22;6510;51.362;7.370;2023-11-19T15:15:53;10.10;99.90
12885;DHT22;6510;51.362;7.370;2023-11-19T15:18:18;10.10;99.90
12885;DHT22;6510;51.362;7.370;2023-11-19T15:20:46;10.00;99.90
12885;DHT22;6510;51.362;7.370;2023-11-19T15:23:16;10.00;99.90
12885;DHT22;6510;51.362;7.370;2023-11-19T15:25:42;9.90;99.90
12885;DHT22;6510;51.362;7.370;2023-11-19T15:28:07;9.80;99.90
12885;DHT22;6510;51.362;7.370;2023-11-19T15:30:33;9.70;99.90
12885;DHT22;6510;51.362;7.370;2023-11-19T15:32:59;9.70;99.90
12885;DHT22;6510;51.362;7.370;2023-11-19T15:35:24;9.80;99.90
12885;DHT22;6510;51.362;7.370;2023-11-19T15:37:51;9.80;99.90
12885;DHT22;6510;51.362;7.370;2023-11-19T15:40:16;9.70;99.90
12885;DHT22;6510;51.362;7.370;2023-11-19T15:42:42;9.80;99.90
12885;DHT22;6510;51.362;7.370;2023-11-19T15:45:12;9.80;99.90
12885;DHT22;6510;51.362;7.370;2023-11-19T15:47:38;9.80;99.90
12885;DHT22;6510;51.362;7.370;2023-11-19T15:50:04;9.90;99.90
12885;DHT22;6510;51.362;7.370;2023-11-19T15:52:31;9.90;99.90
12885;DHT22;6510;51.362;7.370;2023-11-19T15:54:57;9.80;99.90
12885;DHT22;6510;51.362;7.370;2023-11-19T15:57:23;9.80;99.90